createdAt,value
2019-01-23T00:00:48.714Z,97.50
2019-01-23T00:01:48.733Z,95.90
2019-01-23T00:02:48.754Z,105.90
2019-01-23T00:03:48.774Z,97.00
2019-01-23T00:04:48.794Z,99.40
2019-01-23T00:05:48.816Z,96.30
2019-01-23T00:06:48.837Z,103.30
2019-01-23T00:07:48.857Z,100.00
2019-01-23T00:08:48.879Z,99.90
2019-01-23T00:09:48.897Z,103.20
2019-01-23T00:10:48.918Z,99.30
2019-01-23T00:11:48.938Z,95.60
2019-01-23T00:12:48.959Z,106.30
2019-01-23T00:13:48.980Z,96.20
2019-01-23T00:14:48.999Z,90.20
2019-01-23T00:15:49.019Z,101.60
2019-01-23T00:16:49.041Z,102.30
2019-01-23T00:17:49.061Z,99.80
2019-01-23T00:18:49.082Z,105.10
2019-01-23T00:19:49.105Z,102.70
2019-01-23T00:20:49.123Z,97.70
2019-01-23T00:21:49.144Z,103.30
2019-01-23T00:22:49.163Z,101.50
2019-01-23T00:23:49.185Z,99.70
2019-01-23T00:24:49.203Z,94.80
2019-01-23T00:25:49.224Z,99.30
2019-01-23T00:26:49.249Z,100.90
2019-01-23T00:27:49.264Z,98.00
2019-01-23T00:28:49.285Z,92.70
2019-01-23T00:29:49.306Z,92.80
2019-01-23T00:30:49.327Z,90.90
2019-01-23T00:31:49.348Z,93.40
2019-01-23T00:32:49.407Z,97.20
2019-01-23T00:33:49.389Z,97.00
2019-01-23T00:34:49.410Z,92.30
2019-01-23T00:35:49.429Z,93.60
2019-01-23T00:36:49.452Z,93.10
2019-01-23T00:37:49.471Z,98.20
2019-01-23T00:38:49.496Z,88.50
2019-01-23T00:39:49.512Z,87.50
2019-01-23T00:40:49.533Z,88.50
2019-01-23T00:41:49.555Z,94.00
2019-01-23T00:42:49.574Z,97.70
2019-01-23T00:43:49.594Z,88.50
2019-01-23T00:44:49.615Z,100.30
2019-01-23T00:45:49.636Z,102.30
2019-01-23T00:46:49.658Z,91.70
2019-01-23T00:47:49.675Z,89.30
2019-01-23T00:48:49.697Z,91.80
2019-01-23T00:49:49.719Z,89.40
2019-01-23T00:50:49.739Z,97.00
2019-01-23T00:51:49.761Z,91.90
2019-01-23T00:52:49.781Z,90.90
2019-01-23T00:53:49.802Z,89.80
2019-01-23T00:54:49.824Z,91.50
2019-01-23T00:55:49.842Z,89.90
2019-01-23T00:56:49.863Z,87.30
2019-01-23T00:57:49.884Z,86.90
2019-01-23T00:58:49.906Z,95.60
2019-01-23T00:59:49.926Z,86.70
2019-01-23T01:00:49.948Z,89.20
2019-01-23T01:01:49.968Z,88.90
2019-01-23T01:02:49.989Z,84.60
2019-01-23T01:03:50.008Z,89.60
2019-01-23T01:04:50.032Z,88.30
2019-01-23T01:05:50.054Z,91.10
2019-01-23T01:06:50.072Z,88.90
2019-01-23T01:07:50.093Z,86.10
2019-01-23T01:08:50.113Z,88.80
2019-01-23T01:09:50.134Z,86.60
2019-01-23T01:10:50.157Z,83.10
2019-01-23T01:11:50.177Z,90.70
2019-01-23T01:12:50.198Z,83.10
2019-01-23T01:13:50.218Z,86.50
2019-01-23T01:14:50.239Z,81.60
2019-01-23T01:15:50.260Z,86.70
2019-01-23T01:16:50.281Z,89.80
2019-01-23T01:17:50.304Z,90.60
2019-01-23T01:18:50.323Z,90.80
2019-01-23T01:19:50.347Z,86.90
2019-01-23T01:20:50.364Z,82.70
2019-01-23T01:21:50.385Z,87.50
2019-01-23T01:22:50.406Z,81.40
2019-01-23T01:23:50.428Z,91.60
2019-01-23T01:24:50.448Z,85.10
2019-01-23T01:25:50.470Z,96.50
2019-01-23T01:26:50.490Z,86.50
2019-01-23T01:27:50.511Z,83.60
2019-01-23T01:28:56.005Z,86.30
2019-01-23T01:29:50.552Z,90.00
2019-01-23T01:30:50.575Z,82.50
2019-01-23T01:31:50.596Z,82.70
2019-01-23T01:32:50.616Z,89.90
2019-01-23T01:33:50.636Z,90.00
2019-01-23T01:34:50.658Z,79.70
2019-01-23T01:35:50.679Z,79.70
2019-01-23T01:36:50.700Z,83.50
2019-01-23T01:37:50.723Z,79.90
2019-01-23T01:38:50.741Z,82.90
2019-01-23T01:39:50.762Z,80.60
2019-01-23T01:40:50.783Z,85.70
2019-01-23T01:41:50.804Z,83.80
2019-01-23T01:42:50.825Z,80.60
2019-01-23T01:43:50.846Z,85.30
2019-01-23T01:44:50.866Z,85.30
2019-01-23T01:45:50.889Z,89.70
2019-01-23T01:46:50.913Z,84.10
2019-01-23T01:47:50.929Z,83.40
2019-01-23T01:48:50.950Z,86.10
2019-01-23T01:49:50.971Z,87.10
2019-01-23T01:50:50.996Z,86.90
2019-01-23T01:51:51.013Z,81.90
2019-01-23T01:52:51.035Z,80.90
2019-01-23T01:53:51.055Z,84.30
2019-01-23T01:54:51.077Z,84.20
2019-01-23T01:55:51.097Z,82.70
2019-01-23T01:56:51.121Z,86.40
2019-01-23T01:57:51.139Z,85.10
2019-01-23T01:58:51.162Z,83.00
2019-01-23T01:59:51.181Z,82.30
2019-01-23T02:00:53.807Z,81.00
2019-01-23T02:01:51.223Z,79.40
2019-01-23T02:02:51.246Z,81.70
2019-01-23T02:03:51.265Z,83.30
2019-01-23T02:04:51.286Z,76.80
2019-01-23T02:05:51.307Z,81.20
2019-01-23T02:06:51.328Z,84.70
2019-01-23T02:07:51.352Z,78.50
2019-01-23T02:08:51.371Z,79.60
2019-01-23T02:09:51.392Z,82.00
2019-01-23T02:10:51.412Z,87.50
2019-01-23T02:11:51.433Z,85.80
2019-01-23T02:12:51.457Z,81.90
2019-01-23T02:13:51.475Z,83.60
2019-01-23T02:14:51.498Z,81.80
2019-01-23T02:15:51.516Z,75.90
2019-01-23T02:16:51.538Z,80.50
2019-01-23T02:17:51.562Z,78.30
2019-01-23T02:18:51.582Z,81.30
2019-01-23T02:19:51.601Z,75.60
2019-01-23T02:20:51.626Z,77.10
2019-01-23T02:21:51.648Z,78.00
2019-01-23T02:22:51.665Z,73.00
2019-01-23T02:23:51.686Z,74.30
2019-01-23T02:24:51.707Z,76.00
2019-01-23T02:25:51.727Z,76.10
2019-01-23T02:26:51.750Z,78.20
2019-01-23T02:27:51.776Z,78.20
2019-01-23T02:28:51.791Z,75.70
2019-01-23T02:29:51.813Z,75.60
2019-01-23T02:30:51.833Z,81.40
2019-01-23T02:31:51.856Z,77.30
2019-01-23T02:32:51.876Z,77.80
2019-01-23T02:33:51.901Z,79.50
2019-01-23T02:34:51.921Z,72.30
2019-01-23T02:35:51.939Z,80.40
2019-01-23T02:36:51.961Z,79.50
2019-01-23T02:37:51.983Z,71.20
2019-01-23T02:38:52.004Z,79.70
2019-01-23T02:39:52.026Z,76.20
2019-01-23T02:40:52.048Z,74.50
2019-01-23T02:41:52.066Z,73.20
2019-01-23T02:42:52.090Z,77.10
2019-01-23T02:43:52.111Z,80.90
2019-01-23T02:44:52.130Z,75.40
2019-01-23T02:45:52.153Z,76.40
2019-01-23T02:46:52.174Z,73.50
2019-01-23T02:47:52.194Z,75.90
2019-01-23T02:48:52.219Z,74.20
2019-01-23T02:49:52.238Z,72.70
2019-01-23T02:50:52.259Z,76.00
2019-01-23T02:51:52.281Z,69.20
2019-01-23T02:52:52.301Z,73.50
2019-01-23T02:53:52.323Z,73.40
2019-01-23T02:54:52.345Z,71.30
2019-01-23T02:55:52.369Z,69.70
2019-01-23T02:56:52.398Z,73.10
2019-01-23T02:57:52.411Z,70.80
2019-01-23T02:58:52.470Z,74.90
2019-01-23T02:59:52.451Z,77.90
2019-01-23T03:00:52.473Z,71.70
2019-01-23T03:01:52.497Z,71.10
2019-01-23T03:02:52.523Z,75.50
2019-01-23T03:03:52.541Z,73.30
2019-01-23T03:04:52.559Z,70.40
2019-01-23T03:05:52.582Z,66.70
2019-01-23T03:06:52.603Z,66.30
2019-01-23T03:07:52.623Z,68.80
2019-01-23T03:08:52.648Z,67.60
2019-01-23T03:09:52.668Z,72.20
2019-01-23T03:10:52.692Z,69.20
2019-01-23T03:11:52.712Z,76.60
2019-01-23T03:12:52.735Z,70.30
2019-01-23T03:13:52.756Z,71.10
2019-01-23T03:14:52.777Z,72.20
2019-01-23T03:15:52.796Z,69.20
2019-01-23T03:16:52.819Z,70.00
2019-01-23T03:17:52.841Z,72.20
2019-01-23T03:18:52.867Z,66.00
2019-01-23T03:19:52.885Z,73.30
2019-01-23T03:20:52.908Z,67.70
2019-01-23T03:21:52.930Z,70.80
2019-01-23T03:22:52.951Z,73.20
2019-01-23T03:23:52.974Z,68.30
2019-01-23T03:24:52.996Z,63.40
2019-01-23T03:25:53.015Z,70.00
2019-01-23T03:26:53.039Z,67.40
2019-01-23T03:27:53.059Z,64.00
2019-01-23T03:28:53.082Z,63.90
2019-01-23T03:29:53.105Z,64.50
2019-01-23T03:30:53.126Z,65.50
2019-01-23T03:31:53.146Z,64.50
2019-01-23T03:32:53.169Z,67.20
2019-01-23T03:33:53.189Z,65.50
2019-01-23T03:34:53.214Z,62.50
2019-01-23T03:35:53.233Z,65.40
2019-01-23T03:36:53.257Z,63.30
2019-01-23T03:37:53.278Z,61.30
2019-01-23T03:38:53.299Z,62.50
2019-01-23T03:39:53.323Z,65.10
2019-01-23T03:40:53.344Z,68.30
2019-01-23T03:41:53.364Z,68.70
2019-01-23T03:42:53.386Z,68.30
2019-01-23T03:43:53.410Z,62.70
2019-01-23T03:44:53.430Z,68.20
2019-01-23T03:45:53.451Z,69.80
2019-01-23T03:46:53.474Z,66.30
2019-01-23T03:47:53.495Z,68.80
2019-01-23T03:48:53.516Z,65.60
2019-01-23T03:49:53.539Z,68.80
2019-01-23T03:50:53.562Z,67.10
2019-01-23T03:51:53.582Z,70.60
2019-01-23T03:52:53.605Z,71.90
2019-01-23T03:53:53.626Z,67.90
2019-01-23T03:54:53.649Z,65.00
2019-01-23T03:55:53.670Z,73.90
2019-01-23T03:56:53.691Z,72.90
2019-01-23T03:57:53.715Z,66.30
2019-01-23T03:58:53.739Z,77.90
2019-01-23T03:59:53.759Z,72.30
2019-01-23T04:00:53.783Z,70.50
2019-01-23T04:01:53.803Z,77.80
2019-01-23T04:02:53.826Z,77.60
2019-01-23T04:03:53.845Z,73.50
2019-01-23T04:04:53.918Z,74.60
2019-01-23T04:05:53.890Z,69.90
2019-01-23T04:06:53.912Z,72.70
2019-01-23T04:07:53.934Z,69.60
2019-01-23T04:08:53.956Z,71.80
2019-01-23T04:09:53.980Z,71.20
2019-01-23T04:10:54.002Z,74.10
2019-01-23T04:11:54.020Z,74.10
2019-01-23T04:12:54.050Z,78.40
2019-01-23T04:13:54.073Z,71.70
2019-01-23T04:14:54.089Z,72.30
2019-01-23T04:15:54.110Z,79.30
2019-01-23T04:16:54.132Z,78.80
2019-01-23T04:17:54.154Z,73.60
2019-01-23T04:18:54.177Z,70.60
2019-01-23T04:19:54.203Z,80.00
2019-01-23T04:20:54.219Z,73.60
2019-01-23T04:21:54.242Z,76.70
2019-01-23T04:22:54.269Z,76.70
2019-01-23T04:23:54.285Z,76.80
2019-01-23T04:24:54.308Z,72.60
2019-01-23T04:25:54.328Z,72.30
2019-01-23T04:26:54.350Z,73.40
2019-01-23T04:27:54.370Z,69.80
2019-01-23T04:28:54.397Z,75.80
2019-01-23T04:29:54.417Z,74.90
2019-01-23T04:30:54.438Z,74.70
2019-01-23T04:31:54.466Z,77.20
2019-01-23T04:32:54.482Z,74.00
2019-01-23T04:33:54.505Z,74.10
2019-01-23T04:34:54.526Z,73.90
2019-01-23T04:35:54.552Z,79.20
2019-01-23T04:36:54.571Z,73.80
2019-01-23T04:37:54.594Z,73.40
2019-01-23T04:38:54.614Z,71.60
2019-01-23T04:39:54.636Z,72.40
2019-01-23T04:40:54.658Z,77.20
2019-01-23T04:41:54.682Z,77.30
2019-01-23T04:42:54.703Z,68.30
2019-01-23T04:43:54.726Z,75.60
2019-01-23T04:44:54.746Z,75.30
2019-01-23T04:45:54.769Z,69.10
2019-01-23T04:46:54.792Z,73.70
2019-01-23T04:47:54.813Z,72.50
2019-01-23T04:48:54.834Z,75.40
2019-01-23T04:49:54.856Z,67.70
2019-01-23T04:50:54.878Z,68.30
2019-01-23T04:51:54.899Z,71.10
2019-01-23T04:52:54.923Z,71.50
2019-01-23T04:53:54.945Z,68.40
2019-01-23T04:54:54.969Z,70.50
2019-01-23T04:55:54.989Z,74.30
2019-01-23T04:56:55.011Z,67.20
2019-01-23T04:57:55.035Z,70.70
2019-01-23T04:58:55.057Z,67.10
2019-01-23T04:59:55.077Z,68.30
2019-01-23T05:00:55.101Z,67.40
2019-01-23T05:01:55.122Z,67.20
2019-01-23T05:02:55.144Z,70.50
2019-01-23T05:03:55.175Z,69.80
2019-01-23T05:04:55.189Z,73.70
2019-01-23T05:05:55.214Z,72.50
2019-01-23T05:06:55.232Z,72.30
2019-01-23T05:07:55.253Z,70.60
2019-01-23T05:08:55.277Z,71.00
2019-01-23T05:09:55.299Z,68.50
2019-01-23T05:10:55.320Z,74.60
2019-01-23T05:11:55.343Z,75.70
2019-01-23T05:12:55.378Z,68.50
2019-01-23T05:13:55.385Z,71.30
2019-01-23T05:14:55.409Z,71.80
2019-01-23T05:15:55.431Z,66.90
2019-01-23T05:16:55.457Z,70.70
2019-01-23T05:17:55.474Z,72.50
2019-01-23T05:18:55.496Z,81.50
2019-01-23T05:19:55.518Z,75.80
2019-01-23T05:20:55.539Z,70.10
2019-01-23T05:21:55.568Z,73.00
2019-01-23T05:22:55.584Z,72.30
2019-01-23T05:23:55.605Z,73.60
2019-01-23T05:24:55.627Z,80.20
2019-01-23T05:25:55.650Z,77.40
2019-01-23T05:26:55.673Z,77.50
2019-01-23T05:27:55.691Z,74.80
2019-01-23T05:28:55.717Z,74.20
2019-01-23T05:29:55.738Z,76.70
2019-01-23T05:30:55.759Z,76.20
2019-01-23T05:31:55.785Z,82.80
2019-01-23T05:32:55.803Z,73.20
2019-01-23T05:33:55.825Z,80.20
2019-01-23T05:34:55.848Z,74.50
2019-01-23T05:35:55.869Z,73.80
2019-01-23T05:36:55.895Z,81.10
2019-01-23T05:37:56.214Z,81.20
2019-01-23T05:38:55.934Z,79.00
2019-01-23T05:39:55.957Z,80.10
2019-01-23T05:40:55.979Z,73.20
2019-01-23T05:41:56.000Z,80.80
2019-01-23T05:42:56.024Z,70.70
2019-01-23T05:43:56.044Z,82.40
2019-01-23T05:44:56.066Z,81.30
2019-01-23T05:45:56.089Z,78.90
2019-01-23T05:46:56.112Z,71.90
2019-01-23T05:47:56.132Z,73.00
2019-01-23T05:48:56.154Z,70.20
2019-01-23T05:49:56.176Z,77.20
2019-01-23T05:50:56.200Z,81.40
2019-01-23T05:51:56.220Z,84.20
2019-01-23T05:52:56.243Z,75.80
2019-01-23T05:53:56.266Z,72.80
2019-01-23T05:54:56.287Z,76.60
2019-01-23T05:55:56.310Z,76.40
2019-01-23T05:56:56.332Z,71.90
2019-01-23T05:57:56.354Z,71.10
2019-01-23T05:58:56.375Z,73.00
2019-01-23T06:00:02.299Z,74.20
2019-01-23T06:00:56.419Z,69.70
2019-01-23T06:01:56.440Z,78.10
2019-01-23T06:02:56.466Z,75.30
2019-01-23T06:03:56.491Z,71.80
2019-01-23T06:04:56.508Z,74.60
2019-01-23T06:05:56.532Z,75.60
2019-01-23T06:06:56.552Z,74.70
2019-01-23T06:07:56.574Z,71.10
2019-01-23T06:08:56.595Z,66.50
2019-01-23T06:09:56.621Z,66.60
2019-01-23T06:10:56.639Z,66.90
2019-01-23T06:11:56.660Z,74.40
2019-01-23T06:12:56.683Z,68.40
2019-01-23T06:13:56.704Z,71.80
2019-01-23T06:14:56.726Z,71.50
2019-01-23T06:15:56.747Z,70.60
2019-01-23T06:16:56.774Z,70.50
2019-01-23T06:17:56.794Z,74.90
2019-01-23T06:18:56.814Z,78.20
2019-01-23T06:19:56.835Z,71.50
2019-01-23T06:20:56.857Z,76.20
2019-01-23T06:21:56.880Z,73.60
2019-01-23T06:22:56.903Z,75.00
2019-01-23T06:23:56.925Z,76.10
2019-01-23T06:24:56.946Z,74.40
2019-01-23T06:25:56.968Z,79.10
2019-01-23T06:26:56.992Z,79.90
2019-01-23T06:27:57.012Z,79.00
2019-01-23T06:28:57.035Z,77.20
2019-01-23T06:29:57.058Z,71.60
2019-01-23T06:30:57.079Z,79.60
2019-01-23T06:31:57.101Z,78.50
2019-01-23T06:32:57.130Z,75.30
2019-01-23T06:33:57.146Z,69.50
2019-01-23T06:34:57.167Z,78.90
2019-01-23T06:35:57.188Z,70.50
2019-01-23T06:36:57.212Z,68.70
2019-01-23T06:37:57.237Z,69.30
2019-01-23T06:38:57.256Z,62.80
2019-01-23T06:39:57.278Z,67.80
2019-01-23T06:40:57.350Z,67.50
2019-01-23T06:41:57.320Z,62.50
2019-01-23T06:42:57.344Z,64.00
2019-01-23T06:43:57.366Z,62.80
2019-01-23T06:44:57.389Z,66.20
2019-01-23T06:45:57.410Z,64.90
2019-01-23T06:46:57.433Z,66.80
2019-01-23T06:47:57.454Z,69.10
2019-01-23T06:48:57.479Z,66.90
2019-01-23T06:49:58.898Z,65.80
2019-01-23T06:50:57.522Z,69.00
2019-01-23T06:51:57.544Z,64.90
2019-01-23T06:52:57.566Z,61.40
2019-01-23T06:53:57.589Z,67.80
2019-01-23T06:54:57.610Z,63.60
2019-01-23T06:55:57.631Z,67.10
2019-01-23T06:56:57.654Z,72.30
2019-01-23T06:57:57.676Z,71.00
2019-01-23T06:58:57.699Z,64.70
2019-01-23T06:59:57.720Z,72.90
2019-01-23T07:00:57.742Z,60.90
2019-01-23T07:01:57.766Z,67.90
2019-01-23T07:02:57.787Z,62.60
2019-01-23T07:03:57.809Z,64.00
2019-01-23T07:04:57.832Z,71.40
2019-01-23T07:05:57.854Z,63.60
2019-01-23T07:06:57.876Z,75.80
2019-01-23T07:07:57.898Z,67.50
2019-01-23T07:08:57.921Z,66.90
2019-01-23T07:09:57.942Z,65.70
2019-01-23T07:10:57.965Z,64.10
2019-01-23T07:11:57.988Z,60.80
2019-01-23T07:12:58.010Z,65.70
2019-01-23T07:13:58.032Z,65.50
2019-01-23T07:14:58.055Z,67.10
2019-01-23T07:15:58.101Z,65.90
2019-01-23T07:16:58.099Z,76.90
2019-01-23T07:17:58.120Z,71.80
2019-01-23T07:18:58.143Z,66.60
2019-01-23T07:19:58.165Z,67.50
2019-01-23T07:20:58.187Z,66.90
2019-01-23T07:21:58.210Z,66.40
2019-01-23T07:22:58.233Z,64.80
2019-01-23T07:23:58.261Z,62.40
2019-01-23T07:24:58.277Z,73.20
2019-01-23T07:25:58.349Z,62.90
2019-01-23T07:26:58.323Z,66.20
2019-01-23T07:27:58.343Z,69.90
2019-01-23T07:28:58.366Z,64.50
2019-01-23T07:29:58.389Z,66.10
2019-01-23T07:30:58.413Z,61.60
2019-01-23T07:31:58.432Z,72.70
2019-01-23T07:32:58.456Z,64.90
2019-01-23T07:33:58.479Z,68.70
2019-01-23T07:34:58.503Z,72.90
2019-01-23T07:35:58.524Z,70.80
2019-01-23T07:36:58.548Z,69.70
2019-01-23T07:37:58.568Z,72.30
2019-01-23T07:38:58.592Z,76.20
2019-01-23T07:39:58.613Z,74.60
2019-01-23T07:40:58.637Z,70.80
2019-01-23T07:41:58.660Z,69.50
2019-01-23T07:42:58.681Z,71.20
2019-01-23T07:43:58.703Z,66.10
2019-01-23T07:44:58.725Z,72.30
2019-01-23T07:45:58.752Z,64.90
2019-01-23T07:46:58.770Z,63.30
2019-01-23T07:47:58.792Z,60.10
2019-01-23T07:48:58.817Z,64.10
2019-01-23T07:49:58.838Z,63.80
2019-01-23T07:50:58.879Z,70.10
2019-01-23T07:51:58.883Z,64.30
2019-01-23T07:52:58.906Z,68.40
2019-01-23T07:53:58.932Z,70.90
2019-01-23T07:54:58.953Z,69.00
2019-01-23T07:55:58.973Z,66.40
2019-01-23T07:56:58.996Z,71.00
2019-01-23T07:57:59.019Z,71.50
2019-01-23T07:58:59.042Z,74.50
2019-01-23T07:59:59.063Z,72.00
2019-01-23T08:00:59.088Z,71.40
2019-01-23T08:01:59.111Z,74.50
2019-01-23T08:02:59.132Z,65.90
2019-01-23T08:03:59.154Z,67.60
2019-01-23T08:04:59.178Z,68.90
2019-01-23T08:05:59.200Z,70.90
2019-01-23T08:06:59.224Z,75.60
2019-01-23T08:07:59.250Z,77.40
2019-01-23T08:08:59.268Z,71.90
2019-01-23T08:09:59.292Z,80.20
2019-01-23T08:10:59.364Z,74.10
2019-01-23T08:11:59.337Z,72.10
2019-01-23T08:12:59.361Z,82.10
2019-01-23T08:13:59.403Z,70.80
2019-01-23T08:14:59.405Z,71.60
2019-01-23T08:15:59.428Z,69.50
2019-01-23T08:16:59.450Z,66.80
2019-01-23T08:17:59.473Z,65.60
2019-01-23T08:18:59.496Z,65.00
2019-01-23T08:19:59.519Z,64.20
2019-01-23T08:20:59.542Z,65.20
2019-01-23T08:21:59.566Z,64.40
2019-01-23T08:22:59.587Z,63.90
2019-01-23T08:23:59.609Z,62.10
2019-01-23T08:24:59.633Z,64.30
2019-01-23T08:25:59.656Z,67.50
2019-01-23T08:26:59.678Z,63.60
2019-01-23T08:27:59.700Z,63.40
2019-01-23T08:28:59.726Z,63.40
2019-01-23T08:29:59.747Z,70.70
2019-01-23T08:30:59.770Z,70.70
2019-01-23T08:31:59.795Z,66.10
2019-01-23T08:32:59.815Z,62.20
2019-01-23T08:33:59.838Z,63.10
2019-01-23T08:34:59.861Z,64.60
2019-01-23T08:35:59.884Z,70.50
2019-01-23T08:36:59.907Z,61.40
2019-01-23T08:37:59.930Z,64.50
2019-01-23T08:38:59.954Z,57.70
2019-01-23T08:39:59.976Z,55.30
2019-01-23T08:40:59.999Z,57.40
2019-01-23T08:42:00.028Z,52.30
2019-01-23T08:43:00.046Z,56.50
2019-01-23T08:44:00.068Z,57.50
2019-01-23T08:45:00.243Z,54.20
2019-01-23T08:46:00.115Z,55.10
2019-01-23T08:47:00.138Z,52.30
2019-01-23T08:48:00.160Z,55.60
2019-01-23T08:49:00.184Z,52.80
2019-01-23T08:50:00.287Z,45.10
2019-01-23T08:51:00.232Z,49.80
2019-01-23T08:52:00.253Z,49.30
2019-01-23T08:53:00.277Z,51.20
2019-01-23T08:54:00.304Z,48.00
2019-01-23T08:55:00.328Z,52.50
2019-01-23T08:56:00.345Z,50.30
2019-01-23T08:57:00.369Z,49.30
2019-01-23T08:58:00.393Z,49.50
2019-01-23T08:59:00.417Z,46.10
2019-01-23T09:00:00.440Z,45.50
2019-01-23T09:01:00.462Z,51.10
2019-01-23T09:02:00.486Z,50.40
2019-01-23T09:03:00.509Z,49.20
2019-01-23T09:04:00.533Z,47.30
2019-01-23T09:05:00.557Z,47.60
2019-01-23T09:06:00.579Z,49.80
2019-01-23T09:07:00.604Z,49.30
2019-01-23T09:08:00.626Z,47.30
2019-01-23T09:09:00.650Z,50.50
2019-01-23T09:10:00.674Z,46.60
2019-01-23T09:11:00.699Z,46.40
2019-01-23T09:12:00.719Z,48.30
2019-01-23T09:13:00.744Z,52.60
2019-01-23T09:14:00.767Z,45.70
2019-01-23T09:15:00.790Z,48.30
2019-01-23T09:16:00.814Z,47.80
2019-01-23T09:17:00.839Z,47.80
2019-01-23T09:18:00.862Z,47.20
2019-01-23T09:19:00.887Z,46.60
2019-01-23T09:20:00.908Z,46.60
2019-01-23T09:21:00.934Z,48.90
2019-01-23T09:22:00.955Z,48.50
2019-01-23T09:23:00.979Z,47.60
2019-01-23T09:24:01.002Z,47.40
2019-01-23T09:25:01.026Z,44.60
2019-01-23T09:26:01.050Z,49.60
2019-01-23T09:27:01.075Z,52.60
2019-01-23T09:28:01.102Z,52.30
2019-01-23T09:29:01.122Z,52.60
2019-01-23T09:30:01.146Z,51.80
2019-01-23T09:31:01.169Z,50.00
2019-01-23T09:32:01.192Z,51.60
2019-01-23T09:33:01.216Z,54.70
2019-01-23T09:34:01.241Z,56.90
2019-01-23T09:35:01.264Z,52.00
2019-01-23T09:36:01.292Z,54.90
2019-01-23T09:37:01.311Z,52.80
2019-01-23T09:38:01.336Z,51.60
2019-01-23T09:39:01.360Z,58.20
2019-01-23T09:40:01.383Z,53.00
2019-01-23T09:41:01.408Z,56.70
2019-01-23T09:42:01.434Z,56.10
2019-01-23T09:43:01.456Z,52.20
2019-01-23T09:44:01.480Z,54.70
2019-01-23T09:45:01.554Z,54.00
2019-01-23T09:46:01.527Z,49.20
2019-01-23T09:47:01.578Z,48.80
2019-01-23T09:48:01.575Z,45.80
2019-01-23T09:49:01.598Z,45.80
2019-01-23T09:50:01.625Z,47.20
2019-01-23T09:51:01.647Z,45.20
2019-01-23T09:52:01.724Z,43.40
2019-01-23T09:53:01.695Z,49.90
2019-01-23T09:54:01.720Z,47.60
2019-01-23T09:55:01.745Z,47.80
2019-01-23T09:56:01.768Z,48.70
2019-01-23T09:57:01.797Z,43.90
2019-01-23T09:58:01.817Z,44.90
2019-01-23T09:59:02.639Z,48.70
2019-01-23T10:00:01.866Z,45.70
2019-01-23T10:01:01.890Z,45.20
2019-01-23T10:02:01.919Z,46.10
2019-01-23T10:03:01.940Z,45.90
2019-01-23T10:04:01.964Z,43.00
2019-01-23T10:05:02.002Z,40.00
2019-01-23T10:06:02.012Z,46.20
2019-01-23T10:07:02.041Z,45.90
2019-01-23T10:08:02.061Z,44.30
2019-01-23T10:09:02.084Z,49.20
2019-01-23T10:10:02.112Z,47.40
2019-01-23T10:11:02.135Z,43.70
2019-01-23T10:12:02.158Z,44.10
2019-01-23T10:13:02.184Z,47.90
2019-01-23T10:14:02.212Z,47.00
2019-01-23T10:15:02.233Z,51.10
2019-01-23T10:16:02.257Z,50.60
2019-01-23T10:17:02.283Z,50.00
2019-01-23T10:18:02.308Z,48.00
2019-01-23T10:19:02.334Z,53.20
2019-01-23T10:20:02.356Z,49.90
2019-01-23T10:21:02.381Z,47.40
2019-01-23T10:22:02.407Z,49.10
2019-01-23T10:23:02.432Z,46.50
2019-01-23T10:24:02.460Z,44.70
2019-01-23T10:25:02.480Z,47.20
2019-01-23T10:26:02.506Z,48.00
2019-01-23T10:27:02.531Z,46.20
2019-01-23T10:28:02.556Z,46.00
2019-01-23T10:29:02.583Z,46.30
2019-01-23T10:30:02.607Z,46.80
2019-01-23T10:31:06.579Z,48.60
2019-01-23T10:32:02.656Z,45.40
2019-01-23T10:33:02.682Z,42.10
2019-01-23T10:34:02.710Z,50.60
2019-01-23T10:35:02.733Z,42.30
2019-01-23T10:36:02.759Z,42.60
2019-01-23T10:37:02.784Z,47.10
2019-01-23T10:38:02.810Z,51.50
2019-01-23T10:39:02.836Z,47.90
2019-01-23T10:40:02.862Z,45.00
2019-01-23T10:41:02.889Z,48.60
2019-01-23T10:42:02.916Z,50.90
2019-01-23T10:43:02.939Z,49.60
2019-01-23T10:44:02.966Z,45.30
2019-01-23T10:45:02.992Z,44.80
2019-01-23T10:46:03.018Z,44.80
2019-01-23T10:47:05.802Z,44.20
2019-01-23T10:48:03.069Z,43.80
2019-01-23T10:49:03.095Z,47.20
2019-01-23T10:50:03.122Z,46.60
2019-01-23T10:51:03.148Z,45.10
2019-01-23T10:52:03.173Z,41.80
2019-01-23T10:53:03.200Z,44.20
2019-01-23T10:54:03.225Z,41.50
2019-01-23T10:55:03.252Z,44.90
2019-01-23T10:56:03.276Z,44.00
2019-01-23T10:57:03.303Z,45.80
2019-01-23T10:58:03.329Z,44.60
2019-01-23T10:59:03.356Z,44.60
2019-01-23T11:00:03.381Z,49.20
2019-01-23T11:01:03.409Z,41.60
2019-01-23T11:02:03.439Z,44.90
2019-01-23T11:03:09.822Z,45.30
2019-01-23T11:04:03.487Z,44.60
2019-01-23T11:05:03.513Z,51.60
2019-01-23T11:06:03.542Z,44.80
2019-01-23T11:07:03.566Z,44.30
2019-01-23T11:08:03.589Z,47.70
2019-01-23T11:09:03.617Z,45.60
2019-01-23T11:10:03.642Z,48.50
2019-01-23T11:11:03.668Z,48.50
2019-01-23T11:12:03.693Z,44.90
2019-01-23T11:13:03.720Z,43.90
2019-01-23T11:14:03.746Z,44.10
2019-01-23T11:15:03.772Z,46.70
2019-01-23T11:16:03.798Z,47.40
2019-01-23T11:17:03.872Z,45.20
2019-01-23T11:18:03.850Z,42.50
2019-01-23T11:19:03.877Z,49.30
2019-01-23T11:20:03.919Z,40.70
2019-01-23T11:21:03.933Z,44.40
2019-01-23T11:22:03.956Z,41.60
2019-01-23T11:23:03.982Z,42.80
2019-01-23T11:24:04.007Z,41.00
2019-01-23T11:25:04.033Z,38.20
2019-01-23T11:26:04.061Z,44.80
2019-01-23T11:27:04.088Z,52.60
2019-01-23T11:28:04.112Z,54.20
2019-01-23T11:29:04.140Z,51.10
2019-01-23T11:30:04.165Z,50.80
2019-01-23T11:31:04.192Z,51.00
2019-01-23T11:32:04.220Z,48.80
2019-01-23T11:33:04.244Z,43.70
2019-01-23T11:34:04.271Z,47.40
2019-01-23T11:35:04.298Z,46.90
2019-01-23T11:36:04.324Z,49.00
2019-01-23T11:37:04.352Z,43.70
2019-01-23T11:38:04.376Z,49.40
2019-01-23T11:39:04.404Z,50.30
2019-01-23T11:40:04.432Z,50.40
2019-01-23T11:41:04.456Z,58.70
2019-01-23T11:42:04.483Z,56.20
2019-01-23T11:43:04.509Z,46.60
2019-01-23T11:44:04.536Z,51.10
2019-01-23T11:45:04.566Z,54.70
2019-01-23T11:46:04.589Z,51.20
2019-01-23T11:47:04.619Z,49.60
2019-01-23T11:48:04.643Z,51.30
2019-01-23T11:49:04.668Z,51.40
2019-01-23T11:50:04.695Z,51.30
2019-01-23T11:51:04.722Z,50.10
2019-01-23T11:52:04.749Z,54.30
2019-01-23T11:53:04.775Z,49.70
2019-01-23T11:54:04.804Z,51.00
2019-01-23T11:55:04.829Z,51.60
2019-01-23T11:56:04.856Z,55.30
2019-01-23T11:57:04.882Z,53.40
2019-01-23T11:58:04.908Z,52.60
2019-01-23T11:59:04.936Z,52.50
2019-01-23T12:00:04.962Z,52.40
2019-01-23T12:01:04.988Z,53.70
2019-01-23T12:02:05.015Z,54.90
2019-01-23T12:03:05.042Z,48.60
2019-01-23T12:04:05.067Z,49.60
2019-01-23T12:05:05.094Z,52.80
2019-01-23T12:06:05.122Z,54.10
2019-01-23T12:07:05.149Z,51.80
2019-01-23T12:08:05.174Z,53.50
2019-01-23T12:09:05.201Z,54.30
2019-01-23T12:10:05.228Z,52.30
2019-01-23T12:11:05.255Z,53.40
2019-01-23T12:12:05.281Z,49.30
2019-01-23T12:13:05.306Z,50.50
2019-01-23T12:14:05.334Z,51.40
2019-01-23T12:15:05.361Z,54.60
2019-01-23T12:16:05.387Z,50.80
2019-01-23T12:17:05.414Z,51.90
2019-01-23T12:18:05.441Z,54.80
2019-01-23T12:19:05.468Z,52.00
2019-01-23T12:20:05.494Z,53.70
2019-01-23T12:21:05.522Z,55.70
2019-01-23T12:22:05.547Z,60.40
2019-01-23T12:23:05.575Z,55.30
2019-01-23T12:24:05.603Z,56.80
2019-01-23T12:25:05.630Z,55.60
2019-01-23T12:26:05.654Z,54.60
2019-01-23T12:27:05.684Z,53.60
2019-01-23T12:28:05.707Z,57.30
2019-01-23T12:29:05.733Z,53.40
2019-01-23T12:30:05.769Z,54.70
2019-01-23T12:31:05.790Z,60.80
2019-01-23T12:32:05.815Z,54.80
2019-01-23T12:33:05.839Z,55.10
2019-01-23T12:34:05.866Z,60.40
2019-01-23T12:35:05.894Z,64.50
2019-01-23T12:36:05.919Z,65.00
2019-01-23T12:37:05.946Z,62.20
2019-01-23T12:38:05.975Z,57.90
2019-01-23T12:39:05.999Z,60.50
2019-01-23T12:40:06.028Z,61.80
2019-01-23T12:41:06.054Z,62.00
2019-01-23T12:42:06.077Z,63.90
2019-01-23T12:43:06.105Z,66.20
2019-01-23T12:44:06.130Z,66.20
2019-01-23T12:45:06.156Z,66.10
2019-01-23T12:46:06.182Z,63.30
2019-01-23T12:47:06.210Z,66.30
2019-01-23T12:48:06.234Z,77.50
2019-01-23T12:49:06.261Z,75.20
2019-01-23T12:50:06.288Z,81.00
2019-01-23T12:51:06.313Z,82.80
2019-01-23T12:52:06.340Z,75.40
2019-01-23T12:53:06.364Z,78.30